Time;durP1;ratioP1;P1;durP2;ratioP2;P2;SDS_P1;SDS_P2;PMS_P1;PMS_P2;Temp;Humidity;BMP_temperature;BMP_pressure;BME280_temperature;BME280_humidity;BME280_pressure;Samples;Min_cycle;Max_cycle;Signal;HPM_P1;HPM_P2
2022/01/19 00:00:38;;;;;;;21.05;11.82;;;;;;;;;;5025341;28;20103;-78
2022/01/19 00:03:04;;;;;;;23.00;12.18;;;;;;;;;;5023461;28;20135;-79
2022/01/19 00:05:30;;;;;;;22.63;12.80;;;;;;;;;;5024176;28;20096;-80
2022/01/19 00:07:56;;;;;;;22.98;12.70;;;;;;;;;;5024585;28;20041;-82
2022/01/19 00:10:27;;;;;;;19.25;12.45;;;;;;;;;;5041013;28;20060;-79
2022/01/19 00:12:56;;;;;;;20.23;12.90;;;;;;;;;;5041787;28;20037;-81
2022/01/19 00:15:23;;;;;;;21.85;13.25;;;;;;;;;;5040538;28;20037;-80
2022/01/19 00:17:49;;;;;;;21.98;13.32;;;;;;;;;;5025091;28;20343;-78
2022/01/19 00:20:15;;;;;;;25.25;13.40;;;;;;;;;;5023533;28;20049;-81
2022/01/19 00:22:41;;;;;;;20.20;13.23;;;;;;;;;;5023032;28;20038;-81
2022/01/19 00:25:07;;;;;;;18.90;11.50;;;;;;;;;;5040064;28;20366;-80
2022/01/19 00:27:34;;;;;;;25.60;12.77;;;;;;;;;;5040922;28;20037;-79
2022/01/19 00:30:00;;;;;;;18.98;10.52;;;;;;;;;;5023893;28;20045;-81
2022/01/19 00:32:26;;;;;;;18.63;11.60;;;;;;;;;;5023371;28;20381;-81
2022/01/19 00:34:52;;;;;;;23.48;12.35;;;;;;;;;;5023251;28;20041;-79
2022/01/19 00:37:18;;;;;;;25.33;13.45;;;;;;;;;;5022598;28;20048;-79
2022/01/19 00:39:44;;;;;;;23.52;14.50;;;;;;;;;;5039333;28;20110;-80
2022/01/19 00:42:10;;;;;;;27.00;14.80;;;;;;;;;;5040260;28;20042;-79
2022/01/19 00:44:38;;;;;;;23.02;14.50;;;;;;;;;;5039694;28;20033;-79
2022/01/19 00:47:05;;;;;;;29.17;15.88;;;;;;;;;;5039042;28;20041;-79
2022/01/19 00:49:31;;;;;;;27.40;16.88;;;;;;;;;;5022381;28;20080;-78
2022/01/19 00:51:57;;;;;;;30.60;17.65;;;;;;;;;;5022338;28;20046;-78
2022/01/19 00:54:23;;;;;;;31.80;18.13;;;;;;;;;;5022206;28;20052;-79
2022/01/19 00:56:49;;;;;;;29.13;18.17;;;;;;;;;;5023268;28;20033;-79
2022/01/19 00:59:15;;;;;;;31.45;18.50;;;;;;;;;;5022424;28;20450;-79
2022/01/19 01:01:42;;;;;;;28.92;18.25;;;;;;;;;;5040714;28;20091;-79
2022/01/19 01:04:08;;;;;;;30.08;17.10;;;;;;;;;;5042448;28;20044;-80
2022/01/19 01:06:34;;;;;;;26.08;15.55;;;;;;;;;;5024442;28;20037;-81
2022/01/19 01:09:00;;;;;;;30.10;16.35;;;;;;;;;;5040906;28;20464;-79
2022/01/19 01:11:33;;;;;;;26.83;15.88;;;;;;;;;;5024683;28;20086;-80
2022/01/19 01:18:57;;;;;;;31.27;18.97;;;;;;;;;;5042346;28;20059;-79
2022/01/19 01:21:23;;;;;;;35.80;18.70;;;;;;;;;;5042335;28;20287;-79
2022/01/19 01:23:49;;;;;;;34.17;19.63;;;;;;;;;;5028030;28;20068;-80
2022/01/19 01:26:15;;;;;;;33.70;20.30;;;;;;;;;;5040625;28;20049;-81
2022/01/19 01:28:41;;;;;;;32.33;20.00;;;;;;;;;;5040896;28;20048;-80
2022/01/19 01:31:10;;;;;;;29.95;19.90;;;;;;;;;;5029525;28;20045;-80
2022/01/19 01:33:39;;;;;;;36.10;20.40;;;;;;;;;;5050083;28;20045;-80
2022/01/19 01:36:05;;;;;;;32.17;20.02;;;;;;;;;;5032752;28;20042;-80
2022/01/19 01:38:31;;;;;;;30.42;19.08;;;;;;;;;;5054107;28;20052;-81
2022/01/19 01:40:57;;;;;;;29.92;18.65;;;;;;;;;;5037807;28;20045;-81
2022/01/19 01:43:23;;;;;;;28.58;17.73;;;;;;;;;;5041946;28;20044;-80
2022/01/19 01:45:54;;;;;;;34.10;19.08;;;;;;;;;;5023349;28;20041;-81
2022/01/19 01:48:24;;;;;;;30.98;19.58;;;;;;;;;;5023045;28;20047;-80
2022/01/19 01:53:35;;;;;;;32.33;20.52;;;;;;;;;;5039079;28;20449;-81
2022/01/19 01:56:04;;;;;;;33.70;19.67;;;;;;;;;;5040342;28;20101;-79
2022/01/19 01:58:35;;;;;;;36.15;22.83;;;;;;;;;;5042387;28;20033;-82
2022/01/19 02:01:01;;;;;;;39.08;23.40;;;;;;;;;;5044628;28;20072;-80
2022/01/19 02:03:27;;;;;;;41.60;25.60;;;;;;;;;;5027140;28;20064;-82
2022/01/19 02:08:25;;;;;;;44.72;25.65;;;;;;;;;;5037963;28;20040;-79
2022/01/19 02:24:11;;;;;;;45.45;28.25;;;;;;;;;;5038601;28;20092;-81
2022/01/19 02:36:35;;;;;;;54.10;32.20;;;;;;;;;;5037781;28;20041;-79
2022/01/19 02:42:40;;;;;;;38.97;23.30;;;;;;;;;;5040057;28;20041;-80
2022/01/19 02:49:58;;;;;;;30.70;18.83;;;;;;;;;;5038842;28;20041;-81
2022/01/19 02:52:25;;;;;;;31.80;18.65;;;;;;;;;;5021551;28;20103;-81
2022/01/19 02:54:51;;;;;;;28.23;18.52;;;;;;;;;;5038868;28;20080;-80
2022/01/19 02:57:19;;;;;;;28.88;19.15;;;;;;;;;;5039322;28;20478;-81
2022/01/19 03:06:16;;;;;;;28.10;18.23;;;;;;;;;;5023578;28;20475;-78
2022/01/19 03:10:47;;;;;;;28.48;18.33;;;;;;;;;;5038445;28;20041;-78
2022/01/19 03:13:13;;;;;;;30.55;19.65;;;;;;;;;;5037553;28;20049;-81
2022/01/19 03:15:39;;;;;;;29.00;18.05;;;;;;;;;;5022029;28;20042;-81
2022/01/19 03:18:05;;;;;;;33.75;18.90;;;;;;;;;;5038203;28;20046;-81
2022/01/19 03:20:31;;;;;;;34.20;18.27;;;;;;;;;;5038255;28;20061;-82
2022/01/19 03:23:08;;;;;;;26.63;18.70;;;;;;;;;;5039615;28;20052;-81
2022/01/19 03:25:37;;;;;;;24.30;14.52;;;;;;;;;;5023795;28;20034;-80
2022/01/19 03:28:04;;;;;;;19.40;13.32;;;;;;;;;;5021448;28;20049;-81
2022/01/19 03:30:30;;;;;;;20.50;12.45;;;;;;;;;;5039441;28;20453;-83
2022/01/19 03:32:56;;;;;;;16.13;11.75;;;;;;;;;;5039953;28;20049;-82
2022/01/19 03:35:22;;;;;;;14.60;10.35;;;;;;;;;;5040649;28;20052;-83
2022/01/19 03:37:49;;;;;;;16.80;10.38;;;;;;;;;;5039825;28;20038;-81
2022/01/19 03:40:14;;;;;;;12.88;9.52;;;;;;;;;;5039807;28;20056;-81
2022/01/19 03:42:41;;;;;;;17.20;10.27;;;;;;;;;;5039479;28;20034;-81
2022/01/19 03:45:08;;;;;;;18.90;10.50;;;;;;;;;;5020967;28;20135;-79
2022/01/19 03:47:54;;;;;;;15.07;9.90;;;;;;;;;;5022442;28;20038;-82
2022/01/19 03:50:20;;;;;;;16.33;9.82;;;;;;;;;;5039257;28;20041;-81
2022/01/19 03:52:46;;;;;;;14.93;9.90;;;;;;;;;;5021944;28;20128;-80
2022/01/19 03:55:12;;;;;;;14.00;9.02;;;;;;;;;;5040522;28;20097;-81
2022/01/19 03:57:38;;;;;;;13.10;9.57;;;;;;;;;;5041165;28;20095;-82
2022/01/19 04:00:07;;;;;;;14.82;10.25;;;;;;;;;;5029629;28;20107;-83
2022/01/19 04:02:35;;;;;;;15.70;10.20;;;;;;;;;;5043370;28;20052;-82
2022/01/19 04:05:10;;;;;;;17.20;10.35;;;;;;;;;;5048510;28;20033;-78
2022/01/19 04:07:36;;;;;;;14.95;10.30;;;;;;;;;;5041845;28;20049;-78
2022/01/19 04:10:02;;;;;;;15.65;10.23;;;;;;;;;;5061297;28;20045;-80
2022/01/19 04:12:44;;;;;;;14.75;10.00;;;;;;;;;;5034288;28;20090;-79
2022/01/19 04:15:10;;;;;;;17.52;11.32;;;;;;;;;;5053765;28;20041;-82
2022/01/19 04:17:41;;;;;;;18.48;12.07;;;;;;;;;;5045205;28;20048;-81
2022/01/19 04:20:07;;;;;;;14.52;10.88;;;;;;;;;;5043885;28;20068;-82
2022/01/19 04:22:33;;;;;;;16.55;11.27;;;;;;;;;;5044489;28;20038;-79
2022/01/19 04:24:59;;;;;;;16.88;11.50;;;;;;;;;;5042015;28;20088;-82
2022/01/19 04:30:03;;;;;;;18.17;11.98;;;;;;;;;;5042062;28;20044;-82
2022/01/19 04:32:40;;;;;;;16.08;12.18;;;;;;;;;;5027245;28;20038;-83
2022/01/19 04:35:09;;;;;;;18.58;12.02;;;;;;;;;;5041565;28;20037;-80
2022/01/19 04:37:55;;;;;;;18.00;12.35;;;;;;;;;;5043193;28;20048;-84
2022/01/19 04:46:22;;;;;;;18.60;12.65;;;;;;;;;;5038833;28;20544;-80
2022/01/19 05:01:40;;;;;;;17.33;12.75;;;;;;;;;;5038456;28;20037;-81
2022/01/19 05:05:43;;;;;;;14.10;10.32;;;;;;;;;;5039315;28;20060;-81
2022/01/19 05:08:20;;;;;;;16.55;10.50;;;;;;;;;;5037481;28;20037;-79
2022/01/19 05:13:37;;;;;;;14.70;10.07;;;;;;;;;;5019611;28;20477;-80
2022/01/19 05:16:03;;;;;;;13.60;10.20;;;;;;;;;;5039870;28;20042;-81
2022/01/19 05:18:29;;;;;;;11.85;8.93;;;;;;;;;;5021785;28;20042;-82
2022/01/19 05:20:55;;;;;;;13.35;9.15;;;;;;;;;;5021524;28;20056;-79
2022/01/19 05:23:21;;;;;;;14.05;9.98;;;;;;;;;;5039088;28;20029;-81
2022/01/19 05:25:47;;;;;;;12.40;9.60;;;;;;;;;;5038089;28;20038;-78
2022/01/19 05:28:13;;;;;;;17.75;11.68;;;;;;;;;;5039392;28;20366;-78
2022/01/19 05:30:39;;;;;;;19.98;12.30;;;;;;;;;;5040021;28;20365;-80
2022/01/19 05:33:05;;;;;;;15.90;11.95;;;;;;;;;;5023468;28;20041;-81
2022/01/19 05:35:31;;;;;;;17.63;12.32;;;;;;;;;;5038869;28;20042;-82
2022/01/19 05:37:57;;;;;;;13.70;9.98;;;;;;;;;;5038657;28;20103;-82
2022/01/19 05:40:23;;;;;;;13.45;8.05;;;;;;;;;;5024216;28;20052;-81
2022/01/19 05:42:51;;;;;;;11.40;7.72;;;;;;;;;;5025498;28;20041;-81
2022/01/19 05:45:17;;;;;;;10.18;7.70;;;;;;;;;;5037524;28;20033;-82
2022/01/19 05:47:45;;;;;;;11.43;7.53;;;;;;;;;;5040437;28;20037;-82
2022/01/19 05:50:11;;;;;;;10.98;8.02;;;;;;;;;;5022575;28;20041;-82
2022/01/19 05:52:37;;;;;;;12.40;8.50;;;;;;;;;;5023750;28;20377;-82
2022/01/19 05:55:03;;;;;;;11.95;8.05;;;;;;;;;;5024779;28;20080;-81
2022/01/19 05:57:31;;;;;;;10.27;6.88;;;;;;;;;;5023846;28;20096;-83
2022/01/19 05:59:57;;;;;;;10.50;6.10;;;;;;;;;;5039886;28;20087;-81
2022/01/19 06:02:23;;;;;;;10.82;7.32;;;;;;;;;;5038296;28;20038;-82
2022/01/19 06:04:51;;;;;;;10.52;7.15;;;;;;;;;;5023829;28;20033;-79
2022/01/19 06:07:17;;;;;;;9.57;7.63;;;;;;;;;;5056744;28;20029;-80
2022/01/19 06:12:10;;;;;;;10.43;7.35;;;;;;;;;;5037810;28;20033;-81
2022/01/19 06:14:37;;;;;;;8.63;6.53;;;;;;;;;;5021533;28;20045;-83
2022/01/19 06:17:04;;;;;;;7.22;5.22;;;;;;;;;;5037634;28;20072;-83
2022/01/19 06:19:30;;;;;;;10.07;5.95;;;;;;;;;;5020140;28;20057;-83
2022/01/19 06:21:56;;;;;;;10.07;5.50;;;;;;;;;;5021048;28;20045;-83
2022/01/19 06:24:22;;;;;;;9.65;5.78;;;;;;;;;;5037977;28;20064;-82
2022/01/19 06:26:48;;;;;;;8.95;5.90;;;;;;;;;;5042714;28;20048;-82
2022/01/19 06:29:14;;;;;;;10.88;6.03;;;;;;;;;;5024827;28;20045;-82
2022/01/19 06:31:40;;;;;;;7.70;5.28;;;;;;;;;;5024620;28;20505;-82
2022/01/19 06:34:06;;;;;;;8.05;5.22;;;;;;;;;;5043558;28;20095;-81
2022/01/19 06:36:32;;;;;;;8.07;5.05;;;;;;;;;;5030353;28;20052;-82
2022/01/19 06:38:58;;;;;;;6.90;5.30;;;;;;;;;;5027543;28;20041;-81
2022/01/19 06:41:26;;;;;;;8.95;5.68;;;;;;;;;;5050313;28;20057;-79
2022/01/19 06:43:52;;;;;;;9.82;5.80;;;;;;;;;;5052389;28;20067;-79
2022/01/19 06:46:18;;;;;;;9.63;6.13;;;;;;;;;;5035864;28;20034;-80
2022/01/19 06:48:44;;;;;;;12.02;7.05;;;;;;;;;;5055475;28;20142;-80
2022/01/19 06:51:10;;;;;;;11.18;6.95;;;;;;;;;;5056092;28;20056;-81
2022/01/19 06:53:36;;;;;;;11.75;7.03;;;;;;;;;;5047534;28;20045;-81
2022/01/19 06:56:03;;;;;;;10.45;6.70;;;;;;;;;;5027018;28;20037;-82
2022/01/19 06:58:29;;;;;;;8.60;6.20;;;;;;;;;;5038239;28;20099;-82
2022/01/19 07:00:55;;;;;;;9.60;6.30;;;;;;;;;;5025987;28;20090;-82
2022/01/19 07:03:21;;;;;;;9.38;6.65;;;;;;;;;;5024216;28;20029;-82
2022/01/19 07:05:47;;;;;;;10.10;6.70;;;;;;;;;;5023828;28;20099;-81
2022/01/19 07:08:13;;;;;;;10.63;6.75;;;;;;;;;;5040264;28;20037;-83
2022/01/19 07:10:39;;;;;;;11.02;6.70;;;;;;;;;;5039678;28;20048;-82
2022/01/19 07:13:05;;;;;;;10.50;6.78;;;;;;;;;;5023057;28;20071;-84
2022/01/19 07:15:31;;;;;;;9.82;7.10;;;;;;;;;;5050981;28;20026;-83
2022/01/19 07:17:57;;;;;;;11.35;7.03;;;;;;;;;;5027864;28;20037;-83
2022/01/19 07:20:23;;;;;;;9.07;6.38;;;;;;;;;;5045373;28;20113;-83
2022/01/19 07:22:50;;;;;;;11.15;6.70;;;;;;;;;;5028655;28;20037;-83
2022/01/19 07:25:17;;;;;;;10.38;6.43;;;;;;;;;;5045284;28;20065;-83
2022/01/19 07:27:43;;;;;;;11.30;6.82;;;;;;;;;;5043098;28;20045;-84
2022/01/19 07:30:09;;;;;;;10.65;7.60;;;;;;;;;;5035239;28;20033;-85
2022/01/19 07:32:35;;;;;;;9.48;6.95;;;;;;;;;;5047485;28;20037;-85
2022/01/19 07:35:05;;;;;;;12.60;7.03;;;;;;;;;;5031252;28;20038;-85
2022/01/19 07:37:31;;;;;;;11.57;7.50;;;;;;;;;;5045863;28;20034;-83
2022/01/19 07:39:57;;;;;;;11.43;7.07;;;;;;;;;;5030035;28;20041;-83
2022/01/19 07:42:24;;;;;;;11.48;7.40;;;;;;;;;;5031842;28;20033;-84
2022/01/19 07:44:50;;;;;;;11.00;7.10;;;;;;;;;;5029530;28;20465;-84
2022/01/19 07:47:16;;;;;;;11.50;7.80;;;;;;;;;;5046816;28;20056;-84
2022/01/19 07:49:42;;;;;;;10.65;7.45;;;;;;;;;;5049931;28;20090;-82
2022/01/19 07:52:08;;;;;;;10.70;7.60;;;;;;;;;;5033045;28;20034;-84
2022/01/19 07:54:35;;;;;;;11.07;7.30;;;;;;;;;;5036320;28;20103;-84
2022/01/19 07:57:01;;;;;;;13.63;8.32;;;;;;;;;;5038803;28;20112;-84
2022/01/19 07:59:28;;;;;;;13.73;7.95;;;;;;;;;;5054712;28;20053;-83
2022/01/19 08:01:56;;;;;;;12.48;8.23;;;;;;;;;;5054172;28;20116;-81
2022/01/19 08:04:23;;;;;;;14.45;9.07;;;;;;;;;;5052600;28;20064;-81
2022/01/19 08:06:54;;;;;;;13.85;8.63;;;;;;;;;;5052842;28;20384;-81
2022/01/19 08:09:20;;;;;;;12.27;8.15;;;;;;;;;;5037591;28;20083;-82
2022/01/19 08:11:47;;;;;;;12.75;8.30;;;;;;;;;;5052962;28;20045;-80
2022/01/19 08:14:13;;;;;;;13.63;8.65;;;;;;;;;;5035255;28;20063;-83
2022/01/19 08:16:39;;;;;;;12.80;8.45;;;;;;;;;;5051077;28;20459;-82
2022/01/19 08:19:05;;;;;;;14.93;9.13;;;;;;;;;;5051613;28;20057;-84
2022/01/19 08:21:31;;;;;;;12.73;8.57;;;;;;;;;;5050264;28;20485;-82
2022/01/19 08:23:57;;;;;;;13.68;8.57;;;;;;;;;;5050404;28;20044;-81
2022/01/19 08:26:23;;;;;;;13.95;8.43;;;;;;;;;;5029259;28;20041;-82
2022/01/19 08:28:49;;;;;;;13.77;8.90;;;;;;;;;;5028055;28;20048;-84
2022/01/19 08:31:15;;;;;;;13.60;9.05;;;;;;;;;;5030277;28;20094;-83
2022/01/19 08:33:42;;;;;;;12.77;9.10;;;;;;;;;;5046328;28;20037;-83
2022/01/19 08:36:08;;;;;;;14.70;9.15;;;;;;;;;;5028854;28;20041;-83
2022/01/19 08:38:34;;;;;;;14.02;8.77;;;;;;;;;;5033081;28;20038;-81
2022/01/19 08:41:00;;;;;;;11.75;8.45;;;;;;;;;;5046795;28;20113;-82
2022/01/19 08:43:26;;;;;;;14.38;10.00;;;;;;;;;;5027288;28;20073;-81
2022/01/19 08:45:52;;;;;;;14.30;9.80;;;;;;;;;;5028350;28;20037;-80
2022/01/19 08:48:18;;;;;;;12.82;9.27;;;;;;;;;;5037545;28;20050;-79
2022/01/19 08:50:44;;;;;;;16.02;9.27;;;;;;;;;;5027368;28;20364;-79
2022/01/19 08:53:11;;;;;;;14.20;8.95;;;;;;;;;;5024154;28;20522;-79
2022/01/19 08:55:37;;;;;;;16.15;9.18;;;;;;;;;;5047286;28;20041;-79
2022/01/19 08:58:03;;;;;;;12.13;9.07;;;;;;;;;;5023623;28;20042;-81
2022/01/19 09:00:30;;;;;;;12.20;9.57;;;;;;;;;;5023947;28;20418;-81
2022/01/19 09:02:56;;;;;;;13.20;9.45;;;;;;;;;;5023782;28;20033;-80
2022/01/19 09:05:22;;;;;;;13.63;9.40;;;;;;;;;;5040124;28;20377;-78
2022/01/19 09:07:48;;;;;;;13.27;9.60;;;;;;;;;;5040619;28;20068;-81
2022/01/19 09:10:14;;;;;;;16.75;10.30;;;;;;;;;;5038487;28;20045;-81
2022/01/19 09:12:40;;;;;;;16.25;10.48;;;;;;;;;;5038511;28;20048;-81
2022/01/19 09:15:07;;;;;;;16.33;11.00;;;;;;;;;;5022556;28;20045;-79
2022/01/19 09:17:33;;;;;;;17.88;11.52;;;;;;;;;;5038641;28;20038;-82
2022/01/19 09:19:59;;;;;;;15.85;11.40;;;;;;;;;;5038029;28;20049;-80
2022/01/19 09:22:26;;;;;;;15.70;11.20;;;;;;;;;;5047593;28;20031;-79
2022/01/19 09:24:52;;;;;;;18.08;11.50;;;;;;;;;;5057382;28;20459;-79
2022/01/19 09:27:18;;;;;;;17.23;11.73;;;;;;;;;;5057059;28;20042;-80
2022/01/19 09:29:45;;;;;;;16.77;12.07;;;;;;;;;;5057548;28;20061;-80
2022/01/19 09:32:11;;;;;;;20.88;12.80;;;;;;;;;;5036637;28;20116;-79
2022/01/19 09:34:40;;;;;;;19.25;12.85;;;;;;;;;;5041447;28;20037;-81
2022/01/19 09:37:06;;;;;;;20.50;12.93;;;;;;;;;;5042158;28;20461;-81
2022/01/19 09:39:32;;;;;;;18.45;12.90;;;;;;;;;;5023344;28;20080;-81
2022/01/19 09:41:58;;;;;;;21.50;13.57;;;;;;;;;;5022004;28;20167;-82
2022/01/19 09:44:24;;;;;;;18.38;12.65;;;;;;;;;;5038195;28;20183;-81
2022/01/19 09:46:50;;;;;;;24.42;14.35;;;;;;;;;;5039704;28;20037;-81
2022/01/19 09:49:17;;;;;;;19.85;13.98;;;;;;;;;;5022365;28;20450;-81
2022/01/19 09:51:44;;;;;;;21.38;14.10;;;;;;;;;;5028538;28;20120;-80
2022/01/19 09:54:13;;;;;;;27.30;16.10;;;;;;;;;;5044859;28;20461;-81
2022/01/19 09:56:39;;;;;;;26.48;17.45;;;;;;;;;;5028540;28;20042;-82
2022/01/19 09:59:06;;;;;;;26.63;17.40;;;;;;;;;;5045291;28;20052;-81
2022/01/19 10:01:32;;;;;;;28.33;18.90;;;;;;;;;;5029108;28;20037;-81
2022/01/19 10:03:58;;;;;;;31.30;20.88;;;;;;;;;;5045648;28;20046;-81
2022/01/19 10:06:24;;;;;;;31.23;20.88;;;;;;;;;;5025952;28;20057;-81
2022/01/19 10:08:51;;;;;;;32.17;21.05;;;;;;;;;;5026773;28;20045;-80
2022/01/19 10:16:57;;;;;;;30.40;19.92;;;;;;;;;;5040946;28;20045;-82
2022/01/19 10:16:59;;;;;;;30.95;20.58;;;;;;;;;;5038368;28;20037;-82
2022/01/19 10:19:25;;;;;;;31.70;20.73;;;;;;;;;;5021363;28;20049;-82
2022/01/19 10:22:02;;;;;;;32.08;20.52;;;;;;;;;;5023497;28;20075;-80
2022/01/19 10:24:34;;;;;;;29.92;20.63;;;;;;;;;;5058198;28;20036;-81
2022/01/19 10:27:19;;;;;;;36.93;21.73;;;;;;;;;;5043944;28;20041;-82
2022/01/19 10:29:45;;;;;;;30.13;20.60;;;;;;;;;;5044012;28;20045;-81
2022/01/19 10:32:11;;;;;;;33.70;21.25;;;;;;;;;;5042267;28;20060;-81
2022/01/19 10:34:37;;;;;;;34.25;21.80;;;;;;;;;;5038946;28;20041;-81
2022/01/19 10:37:05;;;;;;;32.55;21.88;;;;;;;;;;5039285;28;20041;-80
2022/01/19 10:39:58;;;;;;;32.85;20.40;;;;;;;;;;5039355;28;20149;-79
2022/01/19 10:42:27;;;;;;;31.55;20.50;;;;;;;;;;5041528;28;20432;-80
2022/01/19 10:44:54;;;;;;;35.17;21.60;;;;;;;;;;5032421;28;20041;-81
2022/01/19 10:47:37;;;;;;;30.13;20.10;;;;;;;;;;5055730;28;20053;-81
2022/01/19 10:50:03;;;;;;;33.88;20.02;;;;;;;;;;5034098;28;20041;-81
2022/01/19 10:52:30;;;;;;;33.33;19.92;;;;;;;;;;5053358;28;20112;-80
2022/01/19 10:55:00;;;;;;;34.35;20.38;;;;;;;;;;5055037;28;20107;-81
2022/01/19 10:57:27;;;;;;;31.50;20.00;;;;;;;;;;5032400;28;20051;-81
2022/01/19 10:59:53;;;;;;;30.45;20.55;;;;;;;;;;5024547;28;20038;-79
2022/01/19 11:02:19;;;;;;;30.63;19.52;;;;;;;;;;5021679;28;20061;-81
2022/01/19 11:04:46;;;;;;;28.77;18.77;;;;;;;;;;5037766;28;20037;-81
2022/01/19 11:07:13;;;;;;;30.88;20.30;;;;;;;;;;5021081;28;20041;-81
2022/01/19 11:09:44;;;;;;;31.08;19.60;;;;;;;;;;5043800;28;20085;-81
2022/01/19 11:12:13;;;;;;;30.48;18.77;;;;;;;;;;5053802;28;20047;-82
2022/01/19 11:14:40;;;;;;;28.85;18.77;;;;;;;;;;5045352;28;20056;-83
2022/01/19 11:17:06;;;;;;;30.08;18.55;;;;;;;;;;5047981;28;20137;-80
2022/01/19 11:19:36;;;;;;;29.08;19.17;;;;;;;;;;5045639;28;20050;-82
2022/01/19 11:22:10;;;;;;;33.92;19.85;;;;;;;;;;5048764;28;20342;-82
2022/01/19 11:24:53;;;;;;;32.65;19.35;;;;;;;;;;5046494;28;20037;-82
2022/01/19 11:27:19;;;;;;;29.70;18.75;;;;;;;;;;5024273;28;20369;-82
2022/01/19 11:29:45;;;;;;;29.48;19.10;;;;;;;;;;5025190;28;20033;-81
2022/01/19 11:32:16;;;;;;;29.35;18.77;;;;;;;;;;5042455;28;20041;-81
2022/01/19 11:34:45;;;;;;;26.33;18.48;;;;;;;;;;5029403;28;20041;-82
2022/01/19 11:37:11;;;;;;;32.22;19.77;;;;;;;;;;5043395;28;20067;-81
2022/01/19 11:39:37;;;;;;;32.53;19.88;;;;;;;;;;5041699;28;20065;-82
2022/01/19 11:42:07;;;;;;;30.42;19.67;;;;;;;;;;5026935;28;20116;-83
2022/01/19 11:44:35;;;;;;;26.92;18.88;;;;;;;;;;5042935;28;20052;-81
2022/01/19 11:47:13;;;;;;;33.22;19.38;;;;;;;;;;5047406;28;20033;-80
2022/01/19 11:49:47;;;;;;;29.85;19.35;;;;;;;;;;5046642;28;20116;-81
2022/01/19 11:52:15;;;;;;;28.45;19.60;;;;;;;;;;5025494;28;20048;-83
2022/01/19 11:54:41;;;;;;;31.83;19.38;;;;;;;;;;5041723;28;20084;-84
2022/01/19 11:57:09;;;;;;;31.70;20.10;;;;;;;;;;5028530;28;20052;-83
2022/01/19 11:59:44;;;;;;;35.70;19.98;;;;;;;;;;5043322;28;20029;-79
2022/01/19 12:02:26;;;;;;;29.98;19.95;;;;;;;;;;5052730;28;20469;-82
2022/01/19 12:04:54;;;;;;;30.83;19.80;;;;;;;;;;5052854;28;20041;-82
2022/01/19 12:07:36;;;;;;;29.63;19.88;;;;;;;;;;5051242;28;20041;-81
2022/01/19 12:10:03;;;;;;;28.98;19.10;;;;;;;;;;5047009;28;20049;-82
2022/01/19 12:12:33;;;;;;;26.42;18.83;;;;;;;;;;5048338;28;20056;-82
2022/01/19 12:15:03;;;;;;;34.13;20.67;;;;;;;;;;5050522;28;20041;-84
2022/01/19 12:17:51;;;;;;;28.92;20.10;;;;;;;;;;5033134;28;20033;-80
2022/01/19 12:20:36;;;;;;;31.15;19.65;;;;;;;;;;5044637;28;20057;-85
2022/01/19 12:23:21;;;;;;;31.55;19.98;;;;;;;;;;5047294;28;20091;-84
2022/01/19 12:25:54;;;;;;;32.80;19.70;;;;;;;;;;5046054;28;20041;-82
2022/01/19 12:28:39;;;;;;;30.88;20.75;;;;;;;;;;5028393;28;20037;-81
2022/01/19 12:31:24;;;;;;;30.80;19.10;;;;;;;;;;5045766;28;20037;-83
2022/01/19 12:34:07;;;;;;;27.17;19.20;;;;;;;;;;5045883;28;20041;-82
2022/01/19 12:36:49;;;;;;;33.30;20.00;;;;;;;;;;5047330;28;20045;-84
2022/01/19 12:39:28;;;;;;;27.35;18.27;;;;;;;;;;5031253;28;20037;-84
2022/01/19 12:42:00;;;;;;;31.98;20.23;;;;;;;;;;5047741;28;20072;-83
2022/01/19 12:44:35;;;;;;;33.58;20.60;;;;;;;;;;5046196;28;20091;-83
2022/01/19 12:47:02;;;;;;;30.38;19.25;;;;;;;;;;5055647;28;20026;-82
2022/01/19 12:49:31;;;;;;;33.42;19.67;;;;;;;;;;5042679;28;20111;-83
2022/01/19 12:51:57;;;;;;;32.28;20.10;;;;;;;;;;5033142;28;20048;-85
2022/01/19 12:54:28;;;;;;;32.40;20.73;;;;;;;;;;5030110;28;20466;-83
2022/01/19 12:56:58;;;;;;;31.77;20.15;;;;;;;;;;5034077;28;20069;-83
2022/01/19 12:59:26;;;;;;;31.80;19.52;;;;;;;;;;5038911;28;20032;-84
2022/01/19 13:01:52;;;;;;;33.60;20.60;;;;;;;;;;5049991;28;20125;-83
2022/01/19 13:04:28;;;;;;;31.88;20.33;;;;;;;;;;5048913;28;20559;-83
2022/01/19 13:06:56;;;;;;;35.00;20.73;;;;;;;;;;5035092;28;20046;-82
2022/01/19 13:09:30;;;;;;;28.65;20.63;;;;;;;;;;5029645;28;20041;-83
2022/01/19 13:11:56;;;;;;;33.03;20.98;;;;;;;;;;5029144;28;20061;-82
2022/01/19 13:14:24;;;;;;;29.67;20.13;;;;;;;;;;5046747;28;20038;-83
2022/01/19 13:16:52;;;;;;;31.30;20.20;;;;;;;;;;5044333;28;20033;-83
2022/01/19 13:19:19;;;;;;;35.08;21.05;;;;;;;;;;5047731;28;20048;-83
2022/01/19 13:21:46;;;;;;;33.10;20.58;;;;;;;;;;5048148;28;20029;-83
2022/01/19 13:24:25;;;;;;;34.42;20.75;;;;;;;;;;5045045;28;20059;-83
2022/01/19 13:26:57;;;;;;;35.85;20.27;;;;;;;;;;5030905;28;20059;-84
2022/01/19 13:29:26;;;;;;;31.70;19.95;;;;;;;;;;5033010;28;20048;-82
2022/01/19 13:32:03;;;;;;;33.88;21.48;;;;;;;;;;5046230;28;20037;-85
2022/01/19 13:34:31;;;;;;;32.30;20.85;;;;;;;;;;5051245;28;20045;-82
2022/01/19 13:36:59;;;;;;;33.30;20.70;;;;;;;;;;5042423;28;20033;-82
2022/01/19 13:39:25;;;;;;;30.60;21.10;;;;;;;;;;5046520;28;20056;-84
2022/01/19 13:41:53;;;;;;;33.25;20.88;;;;;;;;;;5027756;28;20047;-83
2022/01/19 13:44:25;;;;;;;35.95;20.95;;;;;;;;;;5045332;28;20025;-85
2022/01/19 13:46:51;;;;;;;31.30;19.55;;;;;;;;;;5029457;28;20037;-85
2022/01/19 13:49:17;;;;;;;32.00;19.98;;;;;;;;;;5028205;28;20038;-84
2022/01/19 13:51:43;;;;;;;32.95;21.23;;;;;;;;;;5029720;28;20033;-84
2022/01/19 13:54:09;;;;;;;31.20;19.98;;;;;;;;;;5030554;28;20121;-83
2022/01/19 13:56:36;;;;;;;31.20;20.35;;;;;;;;;;5047962;28;20052;-85
2022/01/19 13:59:04;;;;;;;36.08;21.77;;;;;;;;;;5047614;28;20115;-83
2022/01/19 14:01:33;;;;;;;35.47;21.05;;;;;;;;;;5028973;28;20364;-85
2022/01/19 14:04:05;;;;;;;30.48;20.80;;;;;;;;;;5048202;28;20049;-83
2022/01/19 14:06:31;;;;;;;33.45;20.38;;;;;;;;;;5043731;28;20034;-84
2022/01/19 14:09:04;;;;;;;30.27;20.27;;;;;;;;;;5044345;28;20057;-85
2022/01/19 14:11:32;;;;;;;31.92;19.48;;;;;;;;;;5038552;28;20040;-81
2022/01/19 14:14:05;;;;;;;33.63;21.20;;;;;;;;;;5057735;28;20045;-81
2022/01/19 14:16:35;;;;;;;33.97;20.45;;;;;;;;;;5041254;28;20081;-82
2022/01/19 14:19:12;;;;;;;31.80;20.38;;;;;;;;;;5042304;28;20029;-81
2022/01/19 14:21:54;;;;;;;32.30;20.52;;;;;;;;;;5042175;28;20064;-81
2022/01/19 14:24:20;;;;;;;34.70;21.52;;;;;;;;;;5042286;28;20105;-81
2022/01/19 14:27:04;;;;;;;36.17;21.73;;;;;;;;;;5042028;28;20029;-79
2022/01/19 14:29:30;;;;;;;33.28;21.35;;;;;;;;;;5042026;28;20036;-81
2022/01/19 14:32:00;;;;;;;34.75;21.90;;;;;;;;;;5059108;28;20021;-80
2022/01/19 14:34:38;;;;;;;35.33;21.63;;;;;;;;;;5042147;28;20060;-79
2022/01/19 14:37:11;;;;;;;31.27;21.67;;;;;;;;;;5058677;28;20037;-78
2022/01/19 14:39:56;;;;;;;36.65;22.77;;;;;;;;;;5058547;28;20056;-80
2022/01/19 14:42:27;;;;;;;38.40;23.25;;;;;;;;;;5058257;28;20060;-80
2022/01/19 14:45:03;;;;;;;38.50;24.67;;;;;;;;;;5053838;28;20045;-83
2022/01/19 14:47:37;;;;;;;40.95;24.45;;;;;;;;;;5045788;28;20075;-83
2022/01/19 14:50:21;;;;;;;37.20;24.95;;;;;;;;;;5029271;28;20064;-83
2022/01/19 14:52:49;;;;;;;39.00;23.60;;;;;;;;;;5044857;28;20048;-83
2022/01/19 14:55:16;;;;;;;37.38;24.73;;;;;;;;;;5027240;28;20053;-83
2022/01/19 14:57:54;;;;;;;43.30;25.35;;;;;;;;;;5027536;28;20061;-84
2022/01/19 15:00:21;;;;;;;44.55;26.80;;;;;;;;;;5044287;28;20361;-81
2022/01/19 15:02:52;;;;;;;41.17;25.73;;;;;;;;;;5028316;28;20116;-82
2022/01/19 15:05:18;;;;;;;48.45;26.77;;;;;;;;;;5027758;28;20509;-82
2022/01/19 15:07:45;;;;;;;40.42;25.83;;;;;;;;;;5026033;28;20099;-82
2022/01/19 15:10:11;;;;;;;43.67;26.35;;;;;;;;;;5028035;28;20041;-82
2022/01/19 15:12:38;;;;;;;47.17;26.92;;;;;;;;;;5044362;28;20037;-81
2022/01/19 15:15:05;;;;;;;44.17;26.73;;;;;;;;;;5027118;28;20030;-83
2022/01/19 15:17:31;;;;;;;47.45;28.25;;;;;;;;;;5044262;28;20047;-83
2022/01/19 15:19:57;;;;;;;40.45;27.58;;;;;;;;;;5028663;28;20137;-81
2022/01/19 15:22:26;;;;;;;46.45;28.05;;;;;;;;;;5030049;28;20037;-83
2022/01/19 15:24:52;;;;;;;48.72;29.00;;;;;;;;;;5043320;28;20096;-83
2022/01/19 15:27:18;;;;;;;46.50;30.33;;;;;;;;;;5042920;28;20034;-84
2022/01/19 15:29:44;;;;;;;51.60;31.33;;;;;;;;;;5043056;28;20034;-83
2022/01/19 15:32:10;;;;;;;51.88;32.15;;;;;;;;;;5026583;28;20037;-82
2022/01/19 15:34:36;;;;;;;50.67;31.83;;;;;;;;;;5028473;28;20072;-82
2022/01/19 15:37:03;;;;;;;56.88;33.92;;;;;;;;;;5028211;28;20061;-83
2022/01/19 15:39:29;;;;;;;53.92;33.08;;;;;;;;;;5024936;28;20045;-84
2022/01/19 15:41:55;;;;;;;60.40;34.88;;;;;;;;;;5041031;28;20037;-82
2022/01/19 15:44:21;;;;;;;55.47;34.75;;;;;;;;;;5041971;28;20048;-84
2022/01/19 15:46:47;;;;;;;58.88;35.45;;;;;;;;;;5030505;28;20042;-84
2022/01/19 15:49:13;;;;;;;58.22;35.45;;;;;;;;;;5037201;28;20033;-83